Time;durP1;ratioP1;P1;durP2;ratioP2;P2;SDS_P1;SDS_P2;PMS_P1;PMS_P2;Temp;Humidity;BMP_temperature;BMP_pressure;BME280_temperature;BME280_humidity;BME280_pressure;Samples;Min_cycle;Max_cycle;Signal;HPM_P1;HPM_P2
2022/06/02 00:02:57;;;;;;;;;;;;;;;11.08;100.00;99487.16;5073641;28;19928;-77
2022/06/02 00:05:51;;;;;;;;;;;;;;;10.77;100.00;99483.50;5070762;28;19924;-77
2022/06/02 00:08:39;;;;;;;;;;;;;;;10.53;100.00;99481.75;5055203;28;19932;-77
2022/06/02 00:11:33;;;;;;;;;;;;;;;9.95;100.00;99484.56;5074267;28;20059;-77
2022/06/02 00:14:36;;;;;;;;;;;;;;;10.47;100.00;99475.00;5021812;28;20480;-77
2022/06/02 00:17:27;;;;;;;;;;;;;;;10.40;100.00;99485.44;5034208;28;19991;-77
2022/06/02 00:20:16;;;;;;;;;;;;;;;10.72;100.00;99485.97;5020531;28;20609;-77
2022/06/02 00:23:15;;;;;;;;;;;;;;;10.94;100.00;99484.53;4994745;28;20250;-77
2022/06/02 00:26:00;;;;;;;;;;;;;;;10.88;100.00;99480.59;4980600;28;19936;-77
2022/06/02 00:28:54;;;;;;;;;;;;;;;11.15;100.00;99483.50;4994838;28;19969;-77
2022/06/02 00:31:44;;;;;;;;;;;;;;;11.21;100.00;99479.81;5014713;28;19947;-77
2022/06/02 00:34:30;;;;;;;;;;;;;;;11.15;100.00;99484.28;5020198;28;20399;-77
2022/06/02 00:37:43;;;;;;;;;;;;;;;11.16;100.00;99480.28;5020292;28;19968;-77
2022/06/02 00:40:30;;;;;;;;;;;;;;;10.43;100.00;99485.44;5005880;28;19932;-77
2022/06/02 00:43:31;;;;;;;;;;;;;;;10.85;100.00;99489.81;5020461;28;19926;-77
2022/06/02 00:46:37;;;;;;;;;;;;;;;10.70;100.00;99485.56;5063791;28;19966;-77
2022/06/02 00:49:30;;;;;;;;;;;;;;;10.45;100.00;99483.00;5072534;28;19971;-77
2022/06/02 00:52:30;;;;;;;;;;;;;;;10.39;100.00;99483.88;5053340;28;19924;-77
2022/06/02 00:58:33;;;;;;;;;;;;;;;9.91;100.00;99485.78;5013392;28;19925;-77
2022/06/02 01:01:08;;;;;;;;;;;;;;;10.34;100.00;99493.50;5010498;28;20020;-77
2022/06/02 01:03:57;;;;;;;;;;;;;;;10.48;100.00;99487.00;5033131;28;20459;-77
2022/06/02 01:06:44;;;;;;;;;;;;;;;10.19;100.00;99486.41;5016538;28;19948;-77
2022/06/02 01:09:40;;;;;;;;;;;;;;;10.56;100.00;99486.50;5018974;28;19929;-77
2022/06/02 01:12:27;;;;;;;;;;;;;;;10.46;100.00;99484.59;5009361;28;20296;-77
2022/06/02 01:15:15;;;;;;;;;;;;;;;9.95;100.00;99490.16;5022421;28;20012;-77
2022/06/02 01:18:34;;;;;;;;;;;;;;;9.92;100.00;99495.78;5009412;28;19925;-77
2022/06/02 01:21:19;;;;;;;;;;;;;;;9.69;100.00;99499.09;5033327;28;19995;-78
2022/06/02 01:23:47;;;;;;;;;;;;;;;9.52;100.00;99502.78;5015997;28;19925;-77
2022/06/02 01:26:44;;;;;;;;;;;;;;;9.03;100.00;99497.38;5018852;28;20058;-77
2022/06/02 01:29:29;;;;;;;;;;;;;;;9.05;100.00;99492.19;5050435;28;19932;-76
2022/06/02 01:32:53;;;;;;;;;;;;;;;9.39;100.00;99509.22;5072638;28;19939;-76
2022/06/02 01:37:46;;;;;;;;;;;;;;;9.18;100.00;99503.72;5111575;27;19912;-77
2022/06/02 01:40:51;;;;;;;;;;;;;;;9.55;100.00;99506.72;5096483;28;20021;-77
2022/06/02 01:43:22;;;;;;;;;;;;;;;9.19;100.00;99508.88;5093775;28;19969;-77
2022/06/02 01:46:30;;;;;;;;;;;;;;;9.20;100.00;99504.91;5096921;28;20252;-77
2022/06/02 01:49:15;;;;;;;;;;;;;;;9.03;100.00;99503.75;5109332;28;19950;-77
2022/06/02 01:51:42;;;;;;;;;;;;;;;9.35;100.00;99502.84;5093076;28;19924;-77
2022/06/02 01:54:45;;;;;;;;;;;;;;;9.43;100.00;99504.41;5109620;28;19927;-78
2022/06/02 01:57:47;;;;;;;;;;;;;;;8.83;100.00;99502.59;5113301;27;19931;-78
2022/06/02 02:00:22;;;;;;;;;;;;;;;9.00;100.00;99504.56;5077265;28;19924;-77
2022/06/02 02:03:18;;;;;;;;;;;;;;;7.93;100.00;99500.63;5111158;28;19931;-78
2022/06/02 02:06:13;;;;;;;;;;;;;;;8.21;100.00;99504.22;5092146;28;20280;-77
2022/06/02 02:09:01;;;;;;;;;;;;;;;8.93;100.00;99501.00;5081688;28;20025;-78
2022/06/02 02:11:41;;;;;;;;;;;;;;;9.24;100.00;99497.28;5092954;28;19931;-77
2022/06/02 02:14:36;;;;;;;;;;;;;;;9.45;100.00;99496.44;5074838;28;19931;-77
2022/06/02 02:17:21;;;;;;;;;;;;;;;9.67;100.00;99492.31;5124506;27;20065;-77
2022/06/02 02:20:27;;;;;;;;;;;;;;;9.51;100.00;99497.59;5110028;28;19924;-78
2022/06/02 02:23:30;;;;;;;;;;;;;;;9.15;100.00;99483.81;5124413;28;20441;-77
2022/06/02 02:26:26;;;;;;;;;;;;;;;9.34;100.00;99484.53;5096146;28;19924;-78
2022/06/02 02:29:22;;;;;;;;;;;;;;;9.57;100.00;99476.44;5123210;28;20367;-78
2022/06/02 02:32:03;;;;;;;;;;;;;;;9.53;100.00;99484.03;5109363;28;19931;-78
2022/06/02 02:35:10;;;;;;;;;;;;;;;9.36;100.00;99476.56;5110453;28;20026;-78
2022/06/02 02:38:04;;;;;;;;;;;;;;;8.74;100.00;99477.16;5108759;28;19924;-78
2022/06/02 02:40:40;;;;;;;;;;;;;;;8.44;100.00;99478.78;5109223;28;20334;-77
2022/06/02 02:43:19;;;;;;;;;;;;;;;8.96;100.00;99470.34;5092153;28;19924;-78
2022/06/02 02:46:14;;;;;;;;;;;;;;;9.28;100.00;99475.00;5123430;27;20306;-78
2022/06/02 02:48:51;;;;;;;;;;;;;;;9.34;100.00;99474.16;5098336;28;19977;-78
2022/06/02 02:51:37;;;;;;;;;;;;;;;9.15;100.00;99464.28;5096024;28;19931;-78
2022/06/02 02:54:24;;;;;;;;;;;;;;;8.96;100.00;99469.53;5078794;28;19928;-78
2022/06/02 02:57:02;;;;;;;;;;;;;;;8.61;100.00;99459.28;5096367;28;19932;-78
2022/06/02 03:00:06;;;;;;;;;;;;;;;8.31;100.00;99470.06;5096416;28;19972;-78
2022/06/02 03:02:44;;;;;;;;;;;;;;;8.38;100.00;99461.69;5095213;28;19966;-78
2022/06/02 03:05:46;;;;;;;;;;;;;;;8.64;100.00;99464.06;5108776;28;19924;-77
2022/06/02 03:08:37;;;;;;;;;;;;;;;8.41;100.00;99443.38;5096442;28;19956;-77
2022/06/02 03:11:29;;;;;;;;;;;;;;;8.34;100.00;99455.34;5093689;28;19924;-77
2022/06/02 03:14:10;;;;;;;;;;;;;;;8.25;100.00;99452.16;5077204;28;19930;-77
2022/06/02 03:16:40;;;;;;;;;;;;;;;8.14;100.00;99456.91;5093708;28;19931;-78
2022/06/02 03:19:33;;;;;;;;;;;;;;;7.24;100.00;99452.75;5093596;28;19931;-78
2022/06/02 03:22:27;;;;;;;;;;;;;;;7.02;100.00;99462.22;5093948;28;19930;-78
2022/06/02 03:25:03;;;;;;;;;;;;;;;7.65;100.00;99461.63;5092512;28;19985;-77
2022/06/02 03:27:45;;;;;;;;;;;;;;;7.94;100.00;99464.06;5093719;28;20414;-78
2022/06/02 03:30:36;;;;;;;;;;;;;;;7.97;100.00;99463.25;5079384;28;20295;-78
2022/06/02 03:33:14;;;;;;;;;;;;;;;7.97;100.00;99466.03;5076566;28;19931;-78
2022/06/02 03:35:52;;;;;;;;;;;;;;;7.96;100.00;99460.88;5093227;28;19924;-78
2022/06/02 03:38:19;;;;;;;;;;;;;;;7.82;100.00;99456.09;5076817;28;19955;-78
2022/06/02 03:40:58;;;;;;;;;;;;;;;7.85;100.00;99462.84;5076796;28;20316;-78
2022/06/02 03:43:33;;;;;;;;;;;;;;;8.15;100.00;99464.06;5095033;28;19924;-78
2022/06/02 03:46:24;;;;;;;;;;;;;;;7.80;100.00;99469.59;5095658;28;19924;-78
2022/06/02 03:48:54;;;;;;;;;;;;;;;7.49;100.00;99464.78;5094462;28;19924;-78
2022/06/02 03:51:46;;;;;;;;;;;;;;;7.77;100.00;99467.59;5111082;28;19967;-77
2022/06/02 03:54:18;;;;;;;;;;;;;;;8.12;100.00;99458.50;5077777;28;20058;-77
2022/06/02 03:56:49;;;;;;;;;;;;;;;8.12;100.00;99455.72;5076600;28;19970;-78
2022/06/02 03:59:37;;;;;;;;;;;;;;;8.20;100.00;99460.88;5060272;28;20375;-78
2022/06/02 04:02:09;;;;;;;;;;;;;;;8.21;100.00;99454.13;5077488;28;20309;-78
2022/06/02 04:05:00;;;;;;;;;;;;;;;7.18;100.00;99454.34;5074454;28;19924;-77
2022/06/02 04:08:04;;;;;;;;;;;;;;;8.03;100.00;99466.44;5079651;28;19971;-77
2022/06/02 04:10:36;;;;;;;;;;;;;;;8.29;100.00;99464.09;5087537;28;20272;-77
2022/06/02 04:16:24;;;;;;;;;;;;;;;8.12;100.00;99466.84;5095384;28;19930;-77
2022/06/02 04:20:34;;;;;;;;;;;;;;;8.31;100.00;99464.50;5096692;27;20016;-77
2022/06/02 04:22:24;;;;;;;;;;;;;;;8.56;100.00;99456.91;5078090;28;20355;-77
2022/06/02 04:25:03;;;;;;;;;;;;;;;8.75;100.00;99462.00;5093351;28;19947;-77
2022/06/02 04:27:48;;;;;;;;;;;;;;;8.55;100.00;99460.88;5094009;28;19924;-77
2022/06/02 04:30:49;;;;;;;;;;;;;;;8.74;100.00;99457.66;5094586;28;19924;-77
2022/06/02 04:33:22;;;;;;;;;;;;;;;8.61;100.00;99458.47;5060160;28;19928;-77
2022/06/02 04:36:11;;;;;;;;;;;;;;;8.06;100.00;99463.66;5076888;28;19928;-76
2022/06/02 04:38:48;;;;;;;;;;;;;;;7.97;100.00;99468.81;5076706;28;20364;-76
2022/06/02 04:41:25;;;;;;;;;;;;;;;8.13;100.00;99465.66;5074166;28;20338;-76
2022/06/02 04:44:21;;;;;;;;;;;;;;;7.61;100.00;99461.63;5068969;28;19932;-76
2022/06/02 04:47:05;;;;;;;;;;;;;;;7.34;100.00;99463.16;5091481;28;19924;-76
2022/06/02 04:50:11;;;;;;;;;;;;;;;7.35;100.00;99467.50;5069273;28;19928;-76
2022/06/02 04:52:53;;;;;;;;;;;;;;;8.19;100.00;99466.84;4989616;28;20385;-76
2022/06/02 04:55:24;;;;;;;;;;;;;;;8.49;100.00;99462.50;4973328;28;19925;-76
2022/06/02 04:58:31;;;;;;;;;;;;;;;8.58;100.00;99459.28;4990836;28;19926;-76
2022/06/02 05:01:08;;;;;;;;;;;;;;;8.37;100.00;99462.91;4957477;28;19934;-76
2022/06/02 05:04:02;;;;;;;;;;;;;;;8.30;100.00;99467.69;4968518;28;19959;-76
2022/06/02 05:06:46;;;;;;;;;;;;;;;8.39;100.00;99465.28;4990512;28;19925;-76
2022/06/02 05:09:31;;;;;;;;;;;;;;;8.70;100.00;99462.44;4987441;28;20069;-76
2022/06/02 05:12:18;;;;;;;;;;;;;;;9.11;100.00;99476.66;4973249;28;19932;-76
2022/06/02 05:14:45;;;;;;;;;;;;;;;9.41;100.00;99478.91;4991261;28;19929;-76
2022/06/02 05:17:16;;;;;;;;;;;;;;;9.51;100.00;99478.84;4985761;28;19961;-76
2022/06/02 05:20:03;;;;;;;;;;;;;;;9.43;100.00;99470.94;4978404;28;20053;-76
2022/06/02 05:22:30;;;;;;;;;;;;;;;9.49;100.00;99480.47;5000406;28;20017;-76
2022/06/02 05:25:14;;;;;;;;;;;;;;;9.84;100.00;99472.69;5085007;28;20018;-76
2022/06/02 05:27:51;;;;;;;;;;;;;;;10.06;100.00;99484.47;5093570;28;20007;-76
2022/06/02 05:30:29;;;;;;;;;;;;;;;10.29;100.00;99485.53;5105324;28;20014;-76
2022/06/02 05:33:06;;;;;;;;;;;;;;;10.55;100.00;99481.31;5085327;28;20261;-76
2022/06/02 05:36:08;;;;;;;;;;;;;;;10.83;100.00;99481.84;5080903;28;19931;-76
2022/06/02 05:39:07;;;;;;;;;;;;;;;10.51;100.00;99472.97;5074124;28;20340;-76
2022/06/02 05:42:00;;;;;;;;;;;;;;;10.63;100.00;99478.03;5092046;28;19930;-77
2022/06/02 05:44:49;;;;;;;;;;;;;;;9.81;100.00;99483.88;5093674;28;19928;-76
2022/06/02 05:47:19;;;;;;;;;;;;;;;10.02;100.00;99489.31;5093454;28;20283;-76
2022/06/02 05:49:54;;;;;;;;;;;;;;;10.70;100.00;99493.94;5093758;28;19928;-76
2022/06/02 05:52:39;;;;;;;;;;;;;;;11.21;100.00;99485.41;5093707;28;19923;-77
2022/06/02 05:55:09;;;;;;;;;;;;;;;11.62;100.00;99483.31;5093360;28;19924;-76
2022/06/02 05:57:51;;;;;;;;;;;;;;;11.86;100.00;99484.97;5093511;28;19963;-76
2022/06/02 06:00:25;;;;;;;;;;;;;;;12.03;100.00;99481.13;5076012;28;19924;-76
2022/06/02 06:03:39;;;;;;;;;;;;;;;12.45;100.00;99480.44;5093075;28;19924;-76
2022/06/02 06:06:23;;;;;;;;;;;;;;;12.68;100.00;99477.63;5093326;28;19924;-76
2022/06/02 06:09:12;;;;;;;;;;;;;;;12.72;100.00;99472.75;5093556;28;19924;-76
2022/06/02 06:11:45;;;;;;;;;;;;;;;12.66;100.00;99477.25;5086477;28;19924;-76
2022/06/02 06:14:18;;;;;;;;;;;;;;;12.67;100.00;99476.06;5073249;28;19932;-76
2022/06/02 06:16:45;;;;;;;;;;;;;;;12.89;100.00;99482.03;5054870;28;19924;-76
2022/06/02 06:19:31;;;;;;;;;;;;;;;13.13;100.00;99477.22;5055242;28;19924;-76
2022/06/02 06:21:59;;;;;;;;;;;;;;;13.40;100.00;99478.69;5087661;28;19928;-76
2022/06/02 06:24:43;;;;;;;;;;;;;;;13.54;100.00;99483.19;5076564;28;19925;-77
2022/06/02 06:27:14;;;;;;;;;;;;;;;13.56;100.00;99477.91;5059451;28;19946;-76
2022/06/02 06:29:49;;;;;;;;;;;;;;;13.63;100.00;99477.78;5091937;28;20011;-76
2022/06/02 06:32:29;;;;;;;;;;;;;;;13.86;100.00;99477.66;5076769;28;19970;-76
2022/06/02 06:35:14;;;;;;;;;;;;;;;14.01;100.00;99481.75;5088630;28;19928;-77
2022/06/02 06:37:51;;;;;;;;;;;;;;;13.78;100.00;99481.88;5084656;28;19935;-78
2022/06/02 06:40:43;;;;;;;;;;;;;;;13.88;100.00;99478.03;5075217;28;20014;-78
2022/06/02 06:43:19;;;;;;;;;;;;;;;14.01;100.00;99481.75;5076540;28;19924;-79
2022/06/02 06:45:52;;;;;;;;;;;;;;;14.25;100.00;99483.22;5092204;28;19974;-79
2022/06/02 06:48:23;;;;;;;;;;;;;;;13.53;100.00;99487.22;5046699;28;20384;-79
2022/06/02 06:51:31;;;;;;;;;;;;;;;14.91;100.00;99486.31;5080916;28;19931;-78
2022/06/02 06:54:17;;;;;;;;;;;;;;;16.51;100.00;99479.13;5052006;28;20371;-79
2022/06/02 06:56:51;;;;;;;;;;;;;;;18.23;100.00;99467.09;5072894;28;19959;-79
2022/06/02 06:59:22;;;;;;;;;;;;;;;19.37;100.00;99468.28;5078365;28;19930;-79
2022/06/02 07:01:52;;;;;;;;;;;;;;;19.96;100.00;99461.09;5078723;28;19928;-78
2022/06/02 07:04:34;;;;;;;;;;;;;;;21.06;100.00;99452.34;5096225;28;20498;-79
2022/06/02 07:07:01;;;;;;;;;;;;;;;21.74;100.00;99447.47;5078093;28;20074;-78
2022/06/02 07:09:28;;;;;;;;;;;;;;;22.86;100.00;99452.38;5071766;28;19924;-77
2022/06/02 07:14:51;;;;;;;;;;;;;;;23.87;100.00;99435.13;5085618;28;19924;-77
2022/06/02 07:17:38;;;;;;;;;;;;;;;24.60;100.00;99435.19;5092040;28;20005;-77
2022/06/02 07:20:25;;;;;;;;;;;;;;;24.38;100.00;99447.25;5074650;28;19924;-76
2022/06/02 07:22:57;;;;;;;;;;;;;;;23.21;100.00;99443.72;5092525;28;19998;-77
2022/06/02 07:25:32;;;;;;;;;;;;;;;24.32;100.00;99443.59;5074240;28;19932;-76
2022/06/02 07:28:12;;;;;;;;;;;;;;;24.36;100.00;99443.31;5090820;28;19993;-73
2022/06/02 07:30:40;;;;;;;;;;;;;;;25.37;100.00;99444.16;5074362;28;19928;-76
2022/06/02 07:33:20;;;;;;;;;;;;;;;26.09;100.00;99433.66;5085539;28;19930;-77
2022/06/02 07:35:59;;;;;;;;;;;;;;;25.53;100.00;99432.00;5084478;28;20268;-77
2022/06/02 07:38:45;;;;;;;;;;;;;;;26.49;100.00;99438.81;5081585;28;19924;-77
2022/06/02 07:41:34;;;;;;;;;;;;;;;25.69;100.00;99433.34;5067907;28;19931;-77
2022/06/02 07:44:17;;;;;;;;;;;;;;;26.37;100.00;99433.63;5090167;28;19951;-77
2022/06/02 07:47:03;;;;;;;;;;;;;;;26.93;100.00;99422.84;5091493;28;19924;-77
2022/06/02 07:49:50;;;;;;;;;;;;;;;26.96;100.00;99425.44;5074390;28;19959;-79
2022/06/02 07:52:39;;;;;;;;;;;;;;;27.10;100.00;99429.28;5070601;28;20406;-78
2022/06/02 07:55:18;;;;;;;;;;;;;;;27.25;100.00;99426.94;5068380;28;19989;-79
2022/06/02 07:58:02;;;;;;;;;;;;;;;25.08;100.00;99444.56;5083217;28;20576;-78
2022/06/02 08:00:33;;;;;;;;;;;;;;;25.32;100.00;99441.28;5073524;28;19928;-79
2022/06/02 08:03:20;;;;;;;;;;;;;;;26.64;100.00;99440.66;5072769;28;20371;-77
2022/06/02 08:05:52;;;;;;;;;;;;;;;26.53;100.00;99429.97;5090011;28;19928;-77
2022/06/02 08:08:20;;;;;;;;;;;;;;;26.23;100.00;99421.13;5077828;28;19929;-78
2022/06/02 08:10:56;;;;;;;;;;;;;;;26.71;100.00;99437.25;5072553;28;19933;-78
2022/06/02 08:13:35;;;;;;;;;;;;;;;27.24;100.00;99434.72;5090487;28;19924;-78
2022/06/02 08:16:04;;;;;;;;;;;;;;;26.68;100.00;99432.56;5067383;28;19931;-79
2022/06/02 08:18:44;;;;;;;;;;;;;;;27.12;100.00;99421.72;5094302;28;19935;-78
2022/06/02 08:21:20;;;;;;;;;;;;;;;26.02;100.00;99422.72;5071733;28;19924;-79
2022/06/02 08:24:15;;;;;;;;;;;;;;;26.15;100.00;99431.56;5061717;28;19924;-78
2022/06/02 08:27:00;;;;;;;;;;;;;;;25.07;100.00;99451.56;5073933;28;19951;-78
2022/06/02 08:29:36;;;;;;;;;;;;;;;25.47;100.00;99434.06;5074357;28;20371;-78
2022/06/02 08:32:23;;;;;;;;;;;;;;;24.01;100.00;99434.22;5089232;28;19932;-78
2022/06/02 08:35:10;;;;;;;;;;;;;;;22.01;100.00;99444.31;5056349;28;19924;-77
2022/06/02 08:37:55;;;;;;;;;;;;;;;23.94;100.00;99446.06;5074130;28;20007;-79
2022/06/02 08:40:50;;;;;;;;;;;;;;;24.02;100.00;99436.56;5074242;28;19924;-82
2022/06/02 08:43:20;;;;;;;;;;;;;;;22.36;100.00;99439.44;5098218;28;19948;-80
2022/06/02 08:45:51;;;;;;;;;;;;;;;23.29;100.00;99444.91;5093625;28;20266;-81
2022/06/02 08:48:18;;;;;;;;;;;;;;;23.25;100.00;99443.56;5086284;28;20318;-80
2022/06/02 08:51:02;;;;;;;;;;;;;;;23.78;100.00;99441.78;5056360;28;20376;-80
2022/06/02 08:53:36;;;;;;;;;;;;;;;24.77;100.00;99441.81;5056310;28;19930;-80
2022/06/02 08:56:20;;;;;;;;;;;;;;;24.70;100.00;99439.44;5056183;28;20352;-80
2022/06/02 08:59:13;;;;;;;;;;;;;;;22.16;100.00;99442.22;5072890;28;19924;-80
2022/06/02 09:02:04;;;;;;;;;;;;;;;22.06;100.00;99445.69;5073535;28;19967;-80
2022/06/02 09:04:44;;;;;;;;;;;;;;;21.27;100.00;99445.53;5073707;28;20342;-80
2022/06/02 09:07:33;;;;;;;;;;;;;;;21.03;100.00;99446.84;5074087;28;19931;-80
2022/06/02 09:10:23;;;;;;;;;;;;;;;21.39;100.00;99452.19;5073983;28;19925;-80
2022/06/02 09:13:01;;;;;;;;;;;;;;;21.64;100.00;99456.56;5073676;28;20281;-80
2022/06/02 09:15:43;;;;;;;;;;;;;;;20.33;100.00;99458.91;5069491;28;19924;-80
2022/06/02 09:18:11;;;;;;;;;;;;;;;19.61;100.00;99457.84;5069477;28;19924;-80
2022/06/02 09:20:40;;;;;;;;;;;;;;;19.54;100.00;99458.19;5078190;28;19934;-80
2022/06/02 09:23:14;;;;;;;;;;;;;;;18.66;100.00;99454.84;5094010;28;19934;-80
2022/06/02 09:25:50;;;;;;;;;;;;;;;19.69;100.00;99453.44;5094035;28;20287;-80
2022/06/02 09:28:17;;;;;;;;;;;;;;;19.65;100.00;99447.16;5093713;28;19924;-80
2022/06/02 09:30:56;;;;;;;;;;;;;;;20.44;100.00;99442.16;5093559;28;19924;-80
2022/06/02 09:33:42;;;;;;;;;;;;;;;21.24;100.00;99437.19;5058772;28;19924;-80
2022/06/02 09:36:22;;;;;;;;;;;;;;;21.19;100.00;99449.22;5109140;28;19931;-80
2022/06/02 09:39:02;;;;;;;;;;;;;;;20.31;100.00;99442.34;5097849;28;19925;-80
2022/06/02 09:41:31;;;;;;;;;;;;;;;20.24;100.00;99436.25;5073427;28;19924;-80
2022/06/02 09:44:02;;;;;;;;;;;;;;;19.85;100.00;99454.34;5073013;28;20031;-80
2022/06/02 09:46:32;;;;;;;;;;;;;;;19.79;100.00;99451.38;5073272;28;20382;-80
2022/06/02 09:49:48;;;;;;;;;;;;;;;20.53;100.00;99444.94;5073615;28;19952;-80
2022/06/02 09:52:34;;;;;;;;;;;;;;;21.10;100.00;99433.03;5029259;28;19925;-80
2022/06/02 09:55:04;;;;;;;;;;;;;;;21.91;100.00;99437.16;5072956;28;20037;-80
2022/06/02 09:57:55;;;;;;;;;;;;;;;21.53;100.00;99428.69;5093175;28;19924;-80
2022/06/02 10:00:25;;;;;;;;;;;;;;;21.48;100.00;99429.38;5062101;28;19924;-80
2022/06/02 10:03:17;;;;;;;;;;;;;;;21.23;100.00;99429.94;5097256;28;19933;-80
2022/06/02 10:05:50;;;;;;;;;;;;;;;21.39;100.00;99423.78;5097467;28;19924;-82
2022/06/02 10:08:38;;;;;;;;;;;;;;;21.64;100.00;99428.91;5093982;28;19924;-80
2022/06/02 10:11:33;;;;;;;;;;;;;;;21.66;100.00;99426.34;5076569;28;19979;-80
2022/06/02 10:14:06;;;;;;;;;;;;;;;22.10;100.00;99426.38;5077350;28;20058;-81
2022/06/02 10:16:53;;;;;;;;;;;;;;;21.39;100.00;99423.78;5076736;28;19979;-80
2022/06/02 10:19:58;;;;;;;;;;;;;;;21.78;100.00;99416.75;5072590;28;19924;-80
2022/06/02 10:22:49;;;;;;;;;;;;;;;21.34;100.00;99415.94;5089536;28;19924;-81
2022/06/02 10:25:36;;;;;;;;;;;;;;;21.50;100.00;99415.47;5080189;28;20276;-80
2022/06/02 10:28:32;;;;;;;;;;;;;;;21.82;100.00;99417.38;5090499;28;19932;-79
2022/06/02 10:31:20;;;;;;;;;;;;;;;21.70;100.00;99412.72;5058213;28;20433;-79
2022/06/02 10:34:30;;;;;;;;;;;;;;;20.94;100.00;99416.41;5092344;28;19955;-79
2022/06/02 10:37:28;;;;;;;;;;;;;;;21.47;100.00;99410.75;5094687;28;19924;-80
2022/06/02 10:40:14;;;;;;;;;;;;;;;21.87;100.00;99415.88;5096473;28;19959;-81
2022/06/02 10:43:28;;;;;;;;;;;;;;;20.68;100.00;99414.56;5052879;28;19924;-78
2022/06/02 10:46:15;;;;;;;;;;;;;;;20.46;100.00;99414.06;5073385;28;19958;-78
2022/06/02 10:49:16;;;;;;;;;;;;;;;20.42;100.00;99407.78;5081301;28;19928;-78
2022/06/02 10:52:05;;;;;;;;;;;;;;;21.02;100.00;99394.13;5096591;28;20022;-78
2022/06/02 10:54:58;;;;;;;;;;;;;;;21.13;100.00;99394.34;5111580;28;19924;-78
2022/06/02 10:57:29;;;;;;;;;;;;;;;21.79;100.00;99401.28;5096119;28;19955;-79
2022/06/02 11:00:27;;;;;;;;;;;;;;;22.55;100.00;99392.38;5094673;28;19928;-78
2022/06/02 11:03:09;;;;;;;;;;;;;;;22.70;100.00;99393.09;5093431;28;19931;-79
2022/06/02 11:05:38;;;;;;;;;;;;;;;21.54;100.00;99396.13;5077920;28;19929;-78
2022/06/02 11:09:08;;;;;;;;;;;;;;;22.29;100.00;99385.78;5068197;28;19925;-78
2022/06/02 11:12:14;;;;;;;;;;;;;;;22.49;100.00;99396.41;4994099;28;19926;-78
2022/06/02 11:15:23;;;;;;;;;;;;;;;22.63;100.00;99382.13;4994189;28;20009;-78
2022/06/02 11:18:15;;;;;;;;;;;;;;;22.04;100.00;99380.72;4994578;28;20427;-79
2022/06/02 11:21:07;;;;;;;;;;;;;;;22.72;100.00;99369.81;4994150;28;19936;-78
2022/06/02 11:24:12;;;;;;;;;;;;;;;21.50;100.00;99372.81;5001668;28;19932;-78
2022/06/02 11:26:51;;;;;;;;;;;;;;;21.19;100.00;99378.97;4981126;28;19925;-78
2022/06/02 11:29:33;;;;;;;;;;;;;;;20.00;100.00;99387.16;5013217;28;19980;-78
2022/06/02 11:32:15;;;;;;;;;;;;;;;20.49;100.00;99381.88;5027937;28;19926;-78
2022/06/02 11:35:04;;;;;;;;;;;;;;;20.79;100.00;99370.16;5013508;28;19929;-78
2022/06/02 11:38:24;;;;;;;;;;;;;;;21.51;100.00;99370.78;5012133;28;20463;-78
2022/06/02 11:41:24;;;;;;;;;;;;;;;21.99;100.00;99363.59;5026853;28;19926;-78
2022/06/02 11:43:52;;;;;;;;;;;;;;;21.95;100.00;99363.78;4997299;28;20377;-78
2022/06/02 11:47:00;;;;;;;;;;;;;;;21.67;100.00;99376.75;5001200;28;19926;-78
2022/06/02 11:49:39;;;;;;;;;;;;;;;22.32;100.00;99359.16;5051236;28;20025;-78
2022/06/02 11:52:32;;;;;;;;;;;;;;;21.26;100.00;99357.91;5079720;28;19924;-78
2022/06/02 11:55:12;;;;;;;;;;;;;;;20.87;100.00;99370.56;5053677;28;20322;-78
2022/06/02 11:58:02;;;;;;;;;;;;;;;22.22;100.00;99352.03;5080450;28;19929;-79
2022/06/02 12:00:58;;;;;;;;;;;;;;;21.40;100.00;99351.47;5074079;28;19929;-80
2022/06/02 12:03:46;;;;;;;;;;;;;;;22.21;100.00;99356.16;5091396;28;20271;-79
2022/06/02 12:06:41;;;;;;;;;;;;;;;21.24;100.00;99354.78;5069419;28;20011;-77
2022/06/02 12:09:33;;;;;;;;;;;;;;;22.20;100.00;99357.44;5080282;28;19959;-81
2022/06/02 12:12:14;;;;;;;;;;;;;;;21.90;100.00;99358.78;5075619;28;19924;-79
2022/06/02 12:15:15;;;;;;;;;;;;;;;21.59;100.00;99354.88;5079384;28;20082;-79
2022/06/02 12:18:09;;;;;;;;;;;;;;;21.57;100.00;99338.28;5083874;28;19960;-83
2022/06/02 12:21:00;;;;;;;;;;;;;;;22.53;100.00;99340.84;5057486;28;19978;-83
2022/06/02 12:23:52;;;;;;;;;;;;;;;22.64;100.00;99340.22;5055468;28;19931;-84
2022/06/02 12:26:58;;;;;;;;;;;;;;;22.30;100.00;99338.94;5059117;28;20414;-84
2022/06/02 12:30:14;;;;;;;;;;;;;;;22.75;100.00;99335.41;5043836;28;19931;-83
2022/06/02 12:32:57;;;;;;;;;;;;;;;22.34;100.00;99339.50;5029280;28;20441;-82
2022/06/02 12:35:53;;;;;;;;;;;;;;;22.34;100.00;99322.44;5086590;28;19966;-83
2022/06/02 12:38:33;;;;;;;;;;;;;;;22.17;100.00;99327.13;5058901;28;20307;-83
2022/06/02 12:41:33;;;;;;;;;;;;;;;20.61;100.00;99324.09;5073856;28;19950;-83
2022/06/02 12:44:17;;;;;;;;;;;;;;;21.45;100.00;99322.34;5095217;28;19964;-82
2022/06/02 12:47:21;;;;;;;;;;;;;;;21.31;100.00;99325.97;5080799;28;20058;-82
2022/06/02 12:50:18;;;;;;;;;;;;;;;22.50;100.00;99318.25;5092322;28;20015;-83
2022/06/02 12:53:04;;;;;;;;;;;;;;;21.51;100.00;99334.59;5079300;28;19931;-83
2022/06/02 12:55:54;;;;;;;;;;;;;;;21.79;100.00;99335.88;5078787;28;19932;-82
2022/06/02 12:58:44;;;;;;;;;;;;;;;21.62;100.00;99317.72;5091216;28;20007;-82
2022/06/02 13:01:48;;;;;;;;;;;;;;;21.41;100.00;99310.38;5073933;28;20525;-82
2022/06/02 13:04:37;;;;;;;;;;;;;;;21.37;100.00;99324.03;5044622;28;19928;-82
2022/06/02 13:07:24;;;;;;;;;;;;;;;22.02;100.00;99308.53;5076640;28;19969;-83
2022/06/02 13:10:27;;;;;;;;;;;;;;;22.30;100.00;99295.47;5073255;28;19978;-83
2022/06/02 13:13:31;;;;;;;;;;;;;;;22.48;100.00;99295.97;5058575;28;19975;-83
2022/06/02 13:16:10;;;;;;;;;;;;;;;21.98;100.00;99317.28;5056187;28;19967;-83
2022/06/02 13:19:20;;;;;;;;;;;;;;;20.52;100.00;99318.47;5075152;28;19959;-82
2022/06/02 13:21:56;;;;;;;;;;;;;;;20.90;100.00;99304.28;5038963;28;19951;-82
2022/06/02 13:24:51;;;;;;;;;;;;;;;21.56;100.00;99316.03;5047188;28;19933;-82
2022/06/02 13:27:43;;;;;;;;;;;;;;;22.06;100.00;99311.94;5031855;28;19925;-82
2022/06/02 13:30:34;;;;;;;;;;;;;;;22.33;100.00;99317.25;5016154;28;20020;-82
2022/06/02 13:33:34;;;;;;;;;;;;;;;22.11;100.00;99309.19;5018435;28;19932;-82
2022/06/02 13:36:39;;;;;;;;;;;;;;;21.83;100.00;99305.16;5018922;28;19929;-82
2022/06/02 13:39:41;;;;;;;;;;;;;;;22.40;100.00;99291.22;4979454;28;19933;-82
2022/06/02 13:42:39;;;;;;;;;;;;;;;22.46;100.00;99300.59;5003395;28;20343;-84
2022/06/02 13:45:46;;;;;;;;;;;;;;;22.67;100.00;99297.25;4992666;28;19933;-83
2022/06/02 13:48:46;;;;;;;;;;;;;;;22.47;100.00;99300.09;5005788;28;20309;-84
2022/06/02 13:51:35;;;;;;;;;;;;;;;21.91;100.00;99306.31;5006283;28;19937;-83
2022/06/02 13:57:55;;;;;;;;;;;;;;;21.48;100.00;99307.13;4971450;28;20393;-81
2022/06/02 14:00:41;;;;;;;;;;;;;;;21.98;100.00;99305.88;4974265;28;19992;-80
2022/06/02 14:03:45;;;;;;;;;;;;;;;22.70;100.00;99295.50;4969126;28;19972;-83
2022/06/02 14:06:37;;;;;;;;;;;;;;;22.33;100.00;99288.78;4950189;29;19938;-82
2022/06/02 14:09:43;;;;;;;;;;;;;;;21.91;100.00;99300.63;4979199;28;19965;-82
2022/06/02 14:12:35;;;;;;;;;;;;;;;21.82;100.00;99295.06;4985014;28;19981;-83
2022/06/02 14:15:29;;;;;;;;;;;;;;;22.51;100.00;99295.00;4947517;28;20309;-82
2022/06/02 14:18:48;;;;;;;;;;;;;;;22.33;100.00;99298.09;4925971;29;20026;-82
2022/06/02 14:21:52;;;;;;;;;;;;;;;21.48;100.00;99295.75;4908306;29;20029;-80
2022/06/02 14:24:41;;;;;;;;;;;;;;;22.55;100.00;99297.63;4912056;29;19993;-81
2022/06/02 14:27:35;;;;;;;;;;;;;;;23.10;100.00;99292.53;4912351;29;19935;-81
2022/06/02 14:30:31;;;;;;;;;;;;;;;22.50;100.00;99292.63;4909096;29;19976;-80
2022/06/02 14:33:22;;;;;;;;;;;;;;;22.95;100.00;99298.38;4931076;29;20279;-80
2022/06/02 14:36:23;;;;;;;;;;;;;;;22.33;100.00;99300.16;4939868;28;20445;-80
2022/06/02 14:39:25;;;;;;;;;;;;;;;20.25;100.00;99301.66;4948940;29;19934;-80